createdAt,value
2018-05-14T00:00:46.015Z,17.70
2018-05-14T00:02:49.486Z,17.70
2018-05-14T00:04:53.062Z,17.70
2018-05-14T00:06:56.634Z,17.70
2018-05-14T00:09:00.122Z,17.70
2018-05-14T00:11:04.446Z,17.90
2018-05-14T00:13:07.916Z,17.80
2018-05-14T00:15:11.448Z,17.90
2018-05-14T00:17:15.038Z,17.90
2018-05-14T00:19:18.551Z,17.90
2018-05-14T00:21:22.465Z,18.00
2018-05-14T00:23:25.982Z,18.10
2018-05-14T00:25:29.508Z,18.10
2018-05-14T00:27:33.832Z,18.10
2018-05-14T00:29:37.314Z,18.10
2018-05-14T00:31:41.639Z,18.10
2018-05-14T00:33:46.046Z,18.00
2018-05-14T00:35:49.599Z,18.00
2018-05-14T00:37:53.151Z,18.00
2018-05-14T00:39:56.812Z,18.00
2018-05-14T00:42:00.327Z,17.90
2018-05-14T00:44:04.570Z,17.90
2018-05-14T00:46:08.115Z,17.90
2018-05-14T00:48:12.365Z,18.00
2018-05-14T00:50:15.923Z,18.00
2018-05-14T00:52:20.210Z,17.90
2018-05-14T00:54:24.529Z,17.90
2018-05-14T00:56:28.077Z,17.80
2018-05-14T00:58:32.016Z,17.90
2018-05-14T01:00:35.557Z,17.90
2018-05-14T01:02:39.841Z,18.00
2018-05-14T01:04:43.393Z,17.90
2018-05-14T01:06:46.904Z,17.90
2018-05-14T01:08:50.425Z,17.90
2018-05-14T01:10:54.785Z,17.90
2018-05-14T01:12:59.105Z,17.90
2018-05-14T01:15:02.753Z,17.90
2018-05-14T01:17:06.335Z,17.80
2018-05-14T01:19:10.202Z,17.70
2018-05-14T01:21:14.483Z,17.80
2018-05-14T01:23:17.991Z,17.70
2018-05-14T01:25:22.317Z,17.70
2018-05-14T01:27:25.837Z,17.70
2018-05-14T01:29:29.384Z,17.70
2018-05-14T01:31:33.696Z,17.60
2018-05-14T01:33:37.272Z,17.60
2018-05-14T01:35:40.797Z,17.50
2018-05-14T01:37:45.040Z,17.50
2018-05-14T01:39:50.179Z,17.30
2018-05-14T01:41:53.703Z,17.30
2018-05-14T01:43:57.211Z,17.30
2018-05-14T01:46:03.367Z,17.20
2018-05-14T01:48:08.820Z,17.20
2018-05-14T01:50:12.681Z,17.30
2018-05-14T01:52:16.248Z,17.40
2018-05-14T01:54:19.810Z,17.40
2018-05-14T01:56:23.480Z,17.40
2018-05-14T01:58:27.127Z,17.30
2018-05-14T02:00:30.638Z,17.40
2018-05-14T02:02:34.906Z,17.20
2018-05-14T02:04:38.899Z,17.20
2018-05-14T02:06:42.400Z,17.00
2018-05-14T02:08:45.904Z,17.10
2018-05-14T02:10:49.479Z,17.00
2018-05-14T02:12:53.079Z,17.00
2018-05-14T02:14:56.606Z,17.00
2018-05-14T02:17:00.162Z,17.00
2018-05-14T02:19:03.735Z,16.70
2018-05-14T02:21:07.269Z,16.80
2018-05-14T02:23:10.837Z,16.90
2018-05-14T02:25:14.335Z,16.80
2018-05-14T02:27:17.842Z,16.80
2018-05-14T02:29:21.441Z,16.90
2018-05-14T02:31:24.947Z,17.00
2018-05-14T02:33:28.535Z,16.90
2018-05-14T02:35:32.048Z,16.80
2018-05-14T02:37:35.570Z,16.70
2018-05-14T02:39:39.959Z,16.80
2018-05-14T02:41:43.460Z,16.70
2018-05-14T02:43:47.760Z,16.60
2018-05-14T02:45:51.299Z,16.60
2018-05-14T02:47:54.847Z,16.70
2018-05-14T02:49:58.404Z,16.80
2018-05-14T02:52:02.086Z,16.60
2018-05-14T02:54:05.616Z,16.60
2018-05-14T02:56:09.206Z,16.30
2018-05-14T02:58:12.714Z,16.50
2018-05-14T03:00:16.250Z,16.70
2018-05-14T03:02:20.563Z,16.70
2018-05-14T03:04:24.839Z,16.70
2018-05-14T03:06:28.516Z,16.70
2018-05-14T03:08:32.017Z,16.70
2018-05-14T03:10:35.526Z,16.80
2018-05-14T03:12:39.066Z,16.70
2018-05-14T03:14:43.385Z,16.80
2018-05-14T03:16:47.688Z,16.70
2018-05-14T03:18:51.997Z,16.80
2018-05-14T03:20:56.303Z,16.80
2018-05-14T03:22:59.856Z,16.70
2018-05-14T03:25:03.432Z,16.70
2018-05-14T03:27:06.958Z,16.70
2018-05-14T03:29:11.384Z,16.60
2018-05-14T03:31:14.919Z,16.50
2018-05-14T03:33:19.192Z,16.50
2018-05-14T03:35:22.759Z,16.50
2018-05-14T03:37:26.260Z,16.50
2018-05-14T03:39:29.774Z,16.60
2018-05-14T03:41:34.040Z,16.60
2018-05-14T03:43:37.599Z,16.60
2018-05-14T03:45:41.134Z,16.60
2018-05-14T03:47:44.678Z,16.60
2018-05-14T03:49:48.340Z,16.50
2018-05-14T03:51:51.870Z,16.50
2018-05-14T03:53:55.383Z,16.40
2018-05-14T03:55:59.804Z,16.50
2018-05-14T03:58:04.102Z,16.50
2018-05-14T04:00:20.208Z,16.40
2018-05-14T04:02:35.444Z,16.40
2018-05-14T04:07:29.934Z,16.30
2018-05-14T04:09:33.373Z,16.40
2018-05-14T04:11:36.816Z,16.40
2018-05-14T04:13:40.296Z,16.40
2018-05-14T04:15:43.814Z,16.40
2018-05-14T04:17:47.499Z,16.30
2018-05-14T04:19:51.317Z,16.40
2018-05-14T04:21:54.863Z,16.40
2018-05-14T04:23:59.199Z,16.40
2018-05-14T04:26:02.802Z,16.40
2018-05-14T04:28:06.331Z,16.40
2018-05-14T04:30:09.950Z,16.40
2018-05-14T04:32:13.463Z,16.40
2018-05-14T04:34:17.770Z,16.40
2018-05-14T04:36:22.171Z,16.40
2018-05-14T04:38:25.678Z,16.40
2018-05-14T04:40:29.955Z,16.40
2018-05-14T04:42:34.299Z,16.40
2018-05-14T04:44:37.800Z,16.40
2018-05-14T04:46:42.238Z,16.30
2018-05-14T04:48:45.756Z,16.30
2018-05-14T04:50:49.574Z,16.20
2018-05-14T04:52:53.268Z,16.40
2018-05-14T04:54:56.859Z,16.40
2018-05-14T04:57:00.672Z,16.40
2018-05-14T04:59:05.115Z,16.40
2018-05-14T05:01:08.940Z,16.30
2018-05-14T05:03:12.521Z,16.40
2018-05-14T05:05:16.081Z,16.40
2018-05-14T05:07:19.574Z,16.40
2018-05-14T05:09:23.106Z,16.50
2018-05-14T05:11:26.679Z,16.50
2018-05-14T05:13:30.993Z,16.50
2018-05-14T05:15:34.498Z,16.50
2018-05-14T05:17:38.830Z,16.50
2018-05-14T05:19:43.103Z,16.50
2018-05-14T05:21:46.690Z,16.50
2018-05-14T05:23:50.219Z,16.60
2018-05-14T05:25:53.730Z,16.60
2018-05-14T05:27:58.056Z,16.50
2018-05-14T05:30:02.038Z,16.50
2018-05-14T05:32:06.350Z,16.50
2018-05-14T05:34:11.937Z,16.60
2018-05-14T05:36:15.631Z,16.60
2018-05-14T05:38:19.588Z,16.60
2018-05-14T05:40:24.061Z,16.70
2018-05-14T05:42:27.808Z,16.70
2018-05-14T05:44:31.539Z,16.60
2018-05-14T05:46:35.802Z,16.70
2018-05-14T05:48:39.279Z,16.70
2018-05-14T05:50:42.864Z,16.70
2018-05-14T05:52:46.411Z,16.80
2018-05-14T05:54:49.906Z,16.80
2018-05-14T05:56:54.257Z,17.00
2018-05-14T05:58:57.739Z,17.00
2018-05-14T06:01:01.995Z,16.90
2018-05-14T06:03:05.530Z,16.90
2018-05-14T06:05:09.022Z,16.90
2018-05-14T06:07:12.598Z,16.90
2018-05-14T06:09:16.098Z,17.00
2018-05-14T06:11:19.594Z,17.00
2018-05-14T06:13:23.135Z,17.10
2018-05-14T06:15:27.419Z,17.10
2018-05-14T06:17:31.782Z,17.00
2018-05-14T06:19:35.327Z,17.00
2018-05-14T06:21:38.839Z,17.00
2018-05-14T06:23:43.198Z,17.30
2018-05-14T06:25:46.717Z,17.30
2018-05-14T06:27:50.344Z,17.20
2018-05-14T06:29:54.994Z,17.10
2018-05-14T06:31:58.578Z,17.10
2018-05-14T06:34:02.135Z,17.20
2018-05-14T06:36:06.739Z,17.20
2018-05-14T06:38:10.372Z,17.20
2018-05-14T06:40:14.671Z,17.50
2018-05-14T06:42:18.179Z,17.50
2018-05-14T06:44:22.572Z,17.50
2018-05-14T06:46:33.176Z,17.50
2018-05-14T06:48:39.261Z,17.50
2018-05-14T06:50:42.735Z,17.40
2018-05-14T06:52:52.102Z,17.30
2018-05-14T06:54:56.461Z,17.40
2018-05-14T06:57:00.239Z,17.30
2018-05-14T06:59:03.833Z,17.30
2018-05-14T07:01:07.412Z,17.40
2018-05-14T07:03:11.078Z,17.30
2018-05-14T07:05:15.320Z,17.30
2018-05-14T07:07:19.396Z,17.40
2018-05-14T07:09:24.358Z,17.50
2018-05-14T07:11:28.004Z,17.40
2018-05-14T07:13:31.442Z,17.50
2018-05-14T07:15:35.001Z,17.80
2018-05-14T07:17:38.620Z,17.80
2018-05-14T07:19:42.171Z,17.60
2018-05-14T07:21:46.446Z,17.50
2018-05-14T07:23:50.042Z,17.50
2018-05-14T07:25:53.554Z,17.50
2018-05-14T07:27:57.075Z,17.60
2018-05-14T07:30:00.620Z,17.60
2018-05-14T07:32:04.145Z,17.60
2018-05-14T07:34:09.575Z,17.80
2018-05-14T07:36:13.243Z,17.80
2018-05-14T07:38:16.718Z,17.80
2018-05-14T07:40:20.223Z,18.00
2018-05-14T07:42:23.774Z,17.80
2018-05-14T07:44:27.263Z,17.90
2018-05-14T07:46:31.608Z,18.10
2018-05-14T07:48:35.899Z,18.10
2018-05-14T07:50:39.415Z,18.00
2018-05-14T07:52:42.952Z,18.10
2018-05-14T07:54:46.491Z,18.20
2018-05-14T07:56:50.802Z,18.20
2018-05-14T07:58:55.137Z,18.30
2018-05-14T08:00:58.651Z,18.20
2018-05-14T08:03:02.135Z,18.30
2018-05-14T08:05:05.750Z,18.40
2018-05-14T08:07:09.309Z,18.50
2018-05-14T08:09:13.591Z,18.60
2018-05-14T08:11:17.159Z,18.60
2018-05-14T08:13:20.752Z,18.70
2018-05-14T08:15:24.240Z,18.70
2018-05-14T08:17:27.734Z,18.70
2018-05-14T08:19:31.209Z,18.70
2018-05-14T08:21:35.486Z,18.70
2018-05-14T08:23:38.978Z,18.70
2018-05-14T08:25:42.475Z,18.80
2018-05-14T08:27:46.019Z,18.80
2018-05-14T08:29:49.525Z,18.90
2018-05-14T08:31:53.093Z,18.90
2018-05-14T08:33:57.382Z,19.00
2018-05-14T08:36:00.902Z,19.00
2018-05-14T08:38:04.436Z,19.10
2018-05-14T08:40:08.044Z,19.10
2018-05-14T08:42:11.539Z,19.10
2018-05-14T08:44:15.140Z,19.20
2018-05-14T08:46:18.670Z,19.30
2018-05-14T08:48:22.166Z,19.30
2018-05-14T08:50:26.475Z,19.30
2018-05-14T08:52:30.963Z,19.50
2018-05-14T08:54:35.017Z,19.40
2018-05-14T08:56:38.486Z,19.50
2018-05-14T08:58:42.787Z,19.60
2018-05-14T09:00:46.461Z,19.60
2018-05-14T09:02:49.891Z,19.60
2018-05-14T09:04:53.454Z,19.70
2018-05-14T09:06:56.924Z,19.70
2018-05-14T09:09:00.582Z,19.80
2018-05-14T09:11:04.959Z,20.00
2018-05-14T09:13:08.481Z,19.90
2018-05-14T09:15:12.168Z,19.90
2018-05-14T09:17:15.682Z,19.90
2018-05-14T09:19:20.052Z,20.00
2018-05-14T09:21:23.672Z,20.00
2018-05-14T09:23:27.171Z,20.10
2018-05-14T09:25:30.932Z,20.10
2018-05-14T09:27:34.463Z,20.20
2018-05-14T09:29:37.935Z,20.20
2018-05-14T09:31:41.435Z,20.20
2018-05-14T09:33:44.982Z,20.30
2018-05-14T09:35:49.259Z,20.40
2018-05-14T09:37:53.132Z,20.30
2018-05-14T09:39:56.601Z,20.50
2018-05-14T09:42:00.905Z,20.50
2018-05-14T09:44:05.271Z,20.70
2018-05-14T09:46:08.781Z,20.70
2018-05-14T09:48:13.142Z,20.60
2018-05-14T09:50:16.814Z,20.60
2018-05-14T09:52:21.099Z,20.70
2018-05-14T09:54:24.623Z,20.70
2018-05-14T09:56:28.402Z,20.70
2018-05-14T09:58:31.944Z,20.80
2018-05-14T10:00:35.483Z,21.00
2018-05-14T10:02:39.034Z,21.00
2018-05-14T10:04:43.303Z,21.10
2018-05-14T10:06:46.844Z,21.10
2018-05-14T10:08:50.379Z,21.10
2018-05-14T10:10:55.422Z,21.30
2018-05-14T10:12:59.452Z,21.30
2018-05-14T10:15:02.918Z,21.20
2018-05-14T10:17:06.487Z,21.20
2018-05-14T10:19:10.039Z,21.30
2018-05-14T10:21:14.350Z,21.20
2018-05-14T10:23:18.621Z,21.30
2018-05-14T10:25:22.635Z,21.20
2018-05-14T10:27:26.149Z,21.20
2018-05-14T10:29:29.620Z,21.30
2018-05-14T10:31:33.160Z,21.40
2018-05-14T10:33:36.719Z,21.40
2018-05-14T10:35:40.255Z,21.40
2018-05-14T10:37:43.806Z,21.40
2018-05-14T10:39:47.307Z,21.50
2018-05-14T10:41:50.884Z,21.70
2018-05-14T10:43:54.380Z,21.70
2018-05-14T10:46:00.096Z,21.60
2018-05-14T10:48:03.654Z,21.70
2018-05-14T10:50:07.176Z,21.60
2018-05-14T10:52:11.497Z,22.00
2018-05-14T10:54:15.036Z,22.00
2018-05-14T10:56:18.691Z,22.10
2018-05-14T10:58:22.378Z,22.10
2018-05-14T11:00:25.900Z,22.00
2018-05-14T11:02:29.418Z,22.10
2018-05-14T11:04:32.966Z,22.50
2018-05-14T11:06:37.251Z,22.10
2018-05-14T11:08:40.770Z,22.10
2018-05-14T11:10:45.135Z,22.10
2018-05-14T11:12:48.741Z,22.10
2018-05-14T11:14:52.240Z,22.10
2018-05-14T11:16:55.835Z,22.20
2018-05-14T11:18:59.438Z,22.20
2018-05-14T11:21:02.943Z,22.10
2018-05-14T11:23:06.512Z,22.20
2018-05-14T11:25:10.051Z,22.30
2018-05-14T11:27:14.302Z,22.30
2018-05-14T11:29:17.875Z,22.30
2018-05-14T11:31:21.532Z,22.40
2018-05-14T11:33:25.031Z,22.40
2018-05-14T11:35:28.626Z,22.40
2018-05-14T11:37:32.166Z,22.50
2018-05-14T11:39:35.681Z,22.50
2018-05-14T11:41:39.222Z,22.70
2018-05-14T11:43:43.526Z,22.60
2018-05-14T11:45:47.048Z,22.60
2018-05-14T11:47:51.330Z,22.70
2018-05-14T11:49:54.856Z,22.70
2018-05-14T11:51:59.629Z,22.80
2018-05-14T11:54:03.171Z,22.80
2018-05-14T11:56:06.735Z,22.90
2018-05-14T11:58:10.446Z,23.00
2018-05-14T12:00:13.961Z,23.00
2018-05-14T12:02:18.270Z,23.10
2018-05-14T12:04:21.841Z,23.00
2018-05-14T12:06:25.380Z,23.10
2018-05-14T12:08:29.659Z,23.40
2018-05-14T12:10:33.195Z,23.40
2018-05-14T12:12:36.847Z,23.20
2018-05-14T12:14:41.154Z,23.30
2018-05-14T12:16:44.664Z,23.30
2018-05-14T12:18:48.637Z,23.30
2018-05-14T12:20:52.112Z,23.40
2018-05-14T12:22:55.599Z,23.50
2018-05-14T12:24:59.159Z,23.70
2018-05-14T12:27:02.671Z,23.90
2018-05-14T12:29:06.214Z,23.80
2018-05-14T12:31:10.226Z,24.10
2018-05-14T12:33:13.758Z,23.80
2018-05-14T12:35:18.029Z,23.70
2018-05-14T12:37:22.371Z,23.80
2018-05-14T12:39:25.873Z,23.80
2018-05-14T12:41:29.400Z,23.90
2018-05-14T12:43:32.899Z,24.60
2018-05-14T12:45:36.471Z,24.80
2018-05-14T12:47:40.028Z,25.70
2018-05-14T12:49:43.555Z,26.20
2018-05-14T12:51:47.045Z,26.10
2018-05-14T12:53:50.601Z,25.30
2018-05-14T12:55:54.907Z,25.30
2018-05-14T12:57:58.439Z,25.30
2018-05-14T13:00:01.958Z,26.00
2018-05-14T13:02:06.315Z,26.90
2018-05-14T13:04:09.811Z,26.90
2018-05-14T13:06:13.412Z,27.10
2018-05-14T13:08:16.905Z,27.20
2018-05-14T13:10:20.558Z,27.60
2018-05-14T13:12:25.147Z,26.50
2018-05-14T13:14:28.636Z,26.90
2018-05-14T13:16:32.181Z,27.00
2018-05-14T13:18:35.910Z,26.10
2018-05-14T13:20:39.394Z,27.00
2018-05-14T13:22:42.920Z,26.20
2018-05-14T13:24:46.499Z,26.20
2018-05-14T13:26:50.004Z,25.50
2018-05-14T13:28:53.492Z,26.00
2018-05-14T13:30:57.035Z,25.80
2018-05-14T13:33:01.306Z,25.70
2018-05-14T13:35:05.472Z,25.70
2018-05-14T13:37:08.976Z,26.00
2018-05-14T13:39:12.468Z,26.10
2018-05-14T13:41:16.115Z,27.80
2018-05-14T13:43:19.614Z,26.40
2018-05-14T13:45:23.151Z,28.40
2018-05-14T13:47:26.806Z,28.90
2018-05-14T13:49:30.494Z,29.00
2018-05-14T13:51:34.022Z,29.20
2018-05-14T13:53:38.283Z,27.80
2018-05-14T13:55:41.954Z,27.70
2018-05-14T13:57:45.495Z,27.20
2018-05-14T13:59:49.018Z,28.10
2018-05-14T14:01:53.371Z,27.70
2018-05-14T14:03:56.890Z,27.70
2018-05-14T14:06:00.382Z,27.60
2018-05-14T14:08:04.091Z,27.90
2018-05-14T14:10:07.599Z,27.00
2018-05-14T14:12:11.194Z,26.70
2018-05-14T14:14:14.756Z,26.40
2018-05-14T14:16:18.270Z,26.00
2018-05-14T14:18:21.827Z,25.80
2018-05-14T14:20:25.375Z,26.20
2018-05-14T14:22:28.906Z,27.70
2018-05-14T14:24:32.546Z,27.20
2018-05-14T14:26:36.075Z,26.90
2018-05-14T14:28:39.648Z,26.90
2018-05-14T14:30:43.203Z,27.90
2018-05-14T14:32:46.719Z,27.20
2018-05-14T14:34:50.510Z,26.70
2018-05-14T14:36:54.040Z,26.80
2018-05-14T14:38:57.549Z,26.70
2018-05-14T14:41:01.138Z,26.40
2018-05-14T14:43:04.685Z,26.00
2018-05-14T14:45:08.205Z,26.30
2018-05-14T14:47:11.767Z,26.30
2018-05-14T14:49:16.096Z,26.40
2018-05-14T14:51:19.541Z,26.40
2018-05-14T14:53:23.867Z,26.30
2018-05-14T14:55:28.144Z,26.00
2018-05-14T14:57:31.695Z,25.90
2018-05-14T14:59:35.279Z,26.20
2018-05-14T15:01:38.835Z,26.30
2018-05-14T15:03:42.386Z,26.00
2018-05-14T15:05:46.803Z,26.00
2018-05-14T15:07:50.379Z,26.00
2018-05-14T15:09:54.672Z,25.80
2018-05-14T15:11:59.094Z,25.70
2018-05-14T15:14:03.444Z,25.80
2018-05-14T15:16:06.978Z,25.80
2018-05-14T15:18:10.580Z,26.10
2018-05-14T15:20:14.181Z,26.00
2018-05-14T15:22:17.693Z,26.00
2018-05-14T15:24:21.248Z,25.80
2018-05-14T15:26:24.785Z,25.70
2018-05-14T15:28:28.351Z,25.80
2018-05-14T15:30:31.871Z,25.90
2018-05-14T15:32:35.375Z,25.90
2018-05-14T15:34:38.917Z,25.90
2018-05-14T15:36:42.442Z,26.10
2018-05-14T15:38:45.965Z,26.10
2018-05-14T15:40:50.286Z,26.20
2018-05-14T15:42:53.815Z,26.20
2018-05-14T15:44:57.374Z,26.20
2018-05-14T15:47:01.663Z,25.20
2018-05-14T15:49:05.188Z,25.20
2018-05-14T15:51:09.593Z,25.30
2018-05-14T15:53:13.871Z,25.40
2018-05-14T15:55:17.434Z,25.40
2018-05-14T15:57:20.959Z,25.30
2018-05-14T15:59:24.493Z,25.10
2018-05-14T16:01:28.836Z,24.90
2018-05-14T16:03:32.417Z,24.90
2018-05-14T16:05:36.729Z,24.80
2018-05-14T16:07:41.002Z,24.80
2018-05-14T16:09:44.543Z,24.80
2018-05-14T16:11:48.103Z,25.10
2018-05-14T16:13:51.592Z,25.30
2018-05-14T16:15:57.722Z,25.40
2018-05-14T16:18:01.559Z,25.30
2018-05-14T16:20:05.140Z,25.50
2018-05-14T16:22:09.422Z,25.60
2018-05-14T16:24:12.978Z,25.50
2018-05-14T16:26:16.552Z,25.80
2018-05-14T16:28:20.083Z,26.00
2018-05-14T16:30:23.584Z,26.00
2018-05-14T16:32:27.170Z,25.70
2018-05-14T16:34:31.477Z,25.40
2018-05-14T16:36:35.797Z,25.30
2018-05-14T16:38:40.104Z,25.30
2018-05-14T16:40:43.680Z,25.30
2018-05-14T16:42:47.243Z,25.30
2018-05-14T16:44:51.532Z,25.10
2018-05-14T16:46:55.094Z,25.10
2018-05-14T16:48:58.740Z,25.10
2018-05-14T16:51:02.314Z,24.90
2018-05-14T16:53:05.907Z,24.90
2018-05-14T16:55:10.283Z,24.70
2018-05-14T16:57:13.860Z,24.60
2018-05-14T16:59:17.387Z,24.60
2018-05-14T17:01:20.934Z,24.60
2018-05-14T17:03:24.456Z,24.60
2018-05-14T17:05:28.051Z,24.60
2018-05-14T17:07:32.299Z,24.50
2018-05-14T17:09:35.799Z,24.50
2018-05-14T17:11:39.421Z,24.50
2018-05-14T17:13:42.955Z,24.40
2018-05-14T17:15:46.471Z,24.30
2018-05-14T17:17:50.043Z,24.40
2018-05-14T17:19:54.372Z,24.40
2018-05-14T17:21:58.295Z,24.40
2018-05-14T17:24:01.834Z,24.40
2018-05-14T17:26:06.130Z,24.40
2018-05-14T17:28:09.639Z,24.30
2018-05-14T17:30:13.243Z,24.30
2018-05-14T17:32:16.715Z,24.20
2018-05-14T17:34:20.346Z,24.20
2018-05-14T17:36:23.984Z,24.10
2018-05-14T17:38:27.439Z,24.10
2018-05-14T17:40:30.982Z,24.10
2018-05-14T17:42:34.503Z,24.10
2018-05-14T17:44:38.070Z,24.10
2018-05-14T17:46:42.423Z,24.10
2018-05-14T17:48:45.995Z,24.10
2018-05-14T17:50:50.047Z,24.10
2018-05-14T17:52:53.626Z,24.10
2018-05-14T17:54:57.138Z,24.10
2018-05-14T17:57:00.680Z,24.00
2018-05-14T17:59:05.059Z,23.90
2018-05-14T18:01:08.563Z,23.90
2018-05-14T18:03:13.337Z,23.90
2018-05-14T18:05:16.996Z,23.90
2018-05-14T18:07:20.526Z,23.80
2018-05-14T18:09:24.019Z,23.80
2018-05-14T18:11:27.581Z,23.80
2018-05-14T18:13:31.121Z,23.80
2018-05-14T18:15:35.281Z,23.80
2018-05-14T18:17:39.735Z,23.70
2018-05-14T18:19:48.794Z,23.70
2018-05-14T18:21:52.572Z,23.70
2018-05-14T18:23:56.413Z,23.60
2018-05-14T18:26:15.715Z,23.60
2018-05-14T18:28:20.051Z,23.50
2018-05-14T18:30:28.461Z,23.40
2018-05-14T18:32:32.101Z,23.50
2018-05-14T18:34:39.492Z,23.40
2018-05-14T18:36:43.035Z,23.20
2018-05-14T18:38:47.001Z,23.40
2018-05-14T18:40:50.502Z,23.40
2018-05-14T18:42:54.796Z,23.30
2018-05-14T18:44:58.365Z,23.30
2018-05-14T18:47:01.938Z,23.20
2018-05-14T18:49:05.480Z,23.20
2018-05-14T18:51:09.071Z,23.30
2018-05-14T18:53:12.587Z,23.10
2018-05-14T18:55:16.248Z,22.90
2018-05-14T18:57:19.785Z,23.00
2018-05-14T18:59:24.094Z,22.90
2018-05-14T19:01:27.646Z,22.90
2018-05-14T19:03:31.199Z,22.90
2018-05-14T19:05:34.793Z,22.80
2018-05-14T19:07:38.311Z,22.90
2018-05-14T19:09:41.956Z,22.90
2018-05-14T19:11:51.788Z,22.80
2018-05-14T19:13:55.340Z,22.80
2018-05-14T19:16:05.283Z,22.80
2018-05-14T19:18:09.666Z,22.80
2018-05-14T19:20:13.202Z,22.80
2018-05-14T19:22:23.130Z,22.70
2018-05-14T19:24:27.395Z,22.70
2018-05-14T19:26:30.910Z,22.70
2018-05-14T19:28:39.963Z,22.70
2018-05-14T19:30:44.226Z,22.70
2018-05-14T19:32:47.854Z,22.60
2018-05-14T19:34:57.113Z,22.50
2018-05-14T19:37:01.398Z,22.50
2018-05-14T19:39:06.637Z,22.50
2018-05-14T19:41:10.961Z,22.40
2018-05-14T19:43:14.569Z,22.50
2018-05-14T19:45:18.064Z,22.50
2018-05-14T19:47:22.367Z,22.40
2018-05-14T19:49:26.789Z,22.40
2018-05-14T19:51:30.348Z,22.40
2018-05-14T19:53:33.849Z,22.30
2018-05-14T19:55:37.399Z,22.30
2018-05-14T19:57:40.975Z,22.30
2018-05-14T19:59:45.271Z,22.20
2018-05-14T20:01:49.551Z,22.20
2018-05-14T20:03:53.111Z,22.20
2018-05-14T20:05:56.650Z,22.20
2018-05-14T20:08:00.206Z,22.10
2018-05-14T20:10:03.930Z,22.20
2018-05-14T20:12:07.563Z,22.00
2018-05-14T20:14:11.239Z,22.00
2018-05-14T20:16:14.797Z,22.10
2018-05-14T20:18:18.439Z,22.10
2018-05-14T20:20:23.371Z,22.00
2018-05-14T20:22:27.150Z,22.00
2018-05-14T20:24:32.445Z,22.00
2018-05-14T20:26:37.833Z,22.00
2018-05-14T20:28:41.350Z,22.00
2018-05-14T20:30:45.913Z,22.00
2018-05-14T20:32:49.773Z,22.00
2018-05-14T20:34:53.757Z,22.00
2018-05-14T20:37:02.989Z,21.80
2018-05-14T20:39:08.804Z,21.80
2018-05-14T20:41:12.327Z,21.70
2018-05-14T20:43:16.912Z,21.80
2018-05-14T20:45:22.453Z,21.80
2018-05-14T20:47:26.807Z,21.80
2018-05-14T20:49:30.572Z,21.60
2018-05-14T20:51:34.476Z,21.50
2018-05-14T20:53:38.011Z,21.30
2018-05-14T20:55:46.669Z,21.50
2018-05-14T20:57:53.021Z,21.50
2018-05-14T20:59:58.084Z,21.50
2018-05-14T21:02:02.633Z,21.50
2018-05-14T21:04:07.275Z,21.50
2018-05-14T21:06:11.028Z,21.50
2018-05-14T21:08:14.691Z,21.40
2018-05-14T21:10:19.307Z,21.50
2018-05-14T21:12:23.887Z,21.50
2018-05-14T21:14:27.491Z,21.50
2018-05-14T21:16:31.019Z,21.40
2018-05-14T21:18:34.579Z,21.30
2018-05-14T21:20:38.187Z,21.40
2018-05-14T21:22:43.898Z,21.40
2018-05-14T21:24:47.916Z,21.40
2018-05-14T21:26:52.132Z,21.40
2018-05-14T21:28:56.910Z,21.30
2018-05-14T21:31:00.462Z,21.30
2018-05-14T21:33:04.500Z,21.20
2018-05-14T21:35:08.322Z,21.20
2018-05-14T21:37:12.710Z,21.10
2018-05-14T21:39:16.948Z,21.20
2018-05-14T21:41:20.462Z,21.20
2018-05-14T21:43:23.959Z,21.20
2018-05-14T21:45:28.095Z,21.20
2018-05-14T21:47:31.683Z,21.20
2018-05-14T21:49:36.335Z,21.10
2018-05-14T21:51:39.868Z,21.10
2018-05-14T21:53:43.439Z,21.00
2018-05-14T21:55:47.443Z,20.90
2018-05-14T21:57:51.285Z,21.00
2018-05-14T21:59:54.798Z,20.60
2018-05-14T22:01:59.450Z,20.60
2018-05-14T22:04:03.797Z,20.70
2018-05-14T22:06:14.532Z,20.70
2018-05-14T22:08:18.256Z,20.60
2018-05-14T22:10:23.444Z,20.70
2018-05-14T22:12:27.498Z,20.80
2018-05-14T22:14:32.195Z,20.70
2018-05-14T22:16:35.926Z,20.70
2018-05-14T22:18:39.729Z,20.70
2018-05-14T22:20:43.338Z,20.70
2018-05-14T22:22:47.724Z,20.70
2018-05-14T22:24:51.418Z,20.70
2018-05-14T22:26:55.760Z,20.70
2018-05-14T22:28:59.950Z,20.70
2018-05-14T22:31:03.486Z,20.70
2018-05-14T22:33:07.005Z,20.70
2018-05-14T22:35:10.608Z,20.70
2018-05-14T22:37:14.152Z,20.60
2018-05-14T22:39:17.703Z,20.60
2018-05-14T22:41:21.927Z,20.60
2018-05-14T22:43:25.615Z,20.50
2018-05-14T22:45:32.673Z,20.60
2018-05-14T22:47:37.783Z,20.50
2018-05-14T22:49:41.819Z,20.60
2018-05-14T22:51:46.193Z,20.50
2018-05-14T22:53:50.072Z,20.60
2018-05-14T22:55:53.655Z,20.40
2018-05-14T22:57:57.691Z,20.50
2018-05-14T23:00:03.127Z,20.40
2018-05-14T23:02:07.727Z,20.40
2018-05-14T23:04:12.986Z,20.20
2018-05-14T23:06:17.858Z,20.30
2018-05-14T23:08:21.414Z,20.30
2018-05-14T23:10:26.433Z,20.30
2018-05-14T23:12:30.651Z,20.30
2018-05-14T23:14:34.984Z,20.10
2018-05-14T23:16:38.898Z,20.10
2018-05-14T23:18:42.586Z,20.00
2018-05-14T23:20:46.187Z,20.00
2018-05-14T23:22:51.124Z,20.00
2018-05-14T23:24:55.764Z,20.20
2018-05-14T23:27:00.819Z,20.10
2018-05-14T23:29:05.261Z,20.10
2018-05-14T23:31:10.396Z,20.10
2018-05-14T23:33:13.897Z,20.10
2018-05-14T23:35:17.455Z,20.10
2018-05-14T23:37:21.444Z,20.00
2018-05-14T23:39:25.103Z,19.80
2018-05-14T23:41:28.931Z,19.30
2018-05-14T23:43:32.489Z,19.60
2018-05-14T23:45:36.771Z,19.40
2018-05-14T23:47:41.116Z,19.30
2018-05-14T23:49:44.959Z,19.30
2018-05-14T23:51:48.466Z,19.40
2018-05-14T23:53:52.739Z,19.60
2018-05-14T23:55:56.994Z,19.30
2018-05-14T23:58:00.503Z,19.30
